Time;durP1;ratioP1;P1;durP2;ratioP2;P2;SDS_P1;SDS_P2;PMS_P1;PMS_P2;Temp;Humidity;BMP_temperature;BMP_pressure;BME280_temperature;BME280_humidity;BME280_pressure;Samples;Min_cycle;Max_cycle;Signal;HPM_P1;HPM_P2
2023/04/29 00:02:09;;;;;;;6.97;6.38;;;;;;;;;;5046011;28;20255;-52
2023/04/29 00:04:35;;;;;;;6.32;5.82;;;;;;;;;;5043944;28;20234;-51
2023/04/29 00:07:03;;;;;;;6.45;5.85;;;;;;;;;;5045635;28;20281;-52
2023/04/29 00:09:30;;;;;;;7.40;6.38;;;;;;;;;;5042580;28;20231;-51
2023/04/29 00:11:56;;;;;;;7.20;6.45;;;;;;;;;;5044461;28;20272;-52
2023/04/29 00:14:23;;;;;;;6.38;5.80;;;;;;;;;;5048491;28;20239;-51
2023/04/29 00:16:50;;;;;;;6.40;5.75;;;;;;;;;;5045046;28;20235;-51
2023/04/29 00:19:17;;;;;;;6.15;5.60;;;;;;;;;;5044433;28;20240;-51
2023/04/29 00:21:44;;;;;;;7.15;6.50;;;;;;;;;;5044011;28;20322;-51
2023/04/29 00:24:12;;;;;;;7.00;6.30;;;;;;;;;;5046511;28;20313;-56
2023/04/29 00:26:40;;;;;;;7.82;6.40;;;;;;;;;;5040304;28;20342;-51
2023/04/29 00:29:06;;;;;;;6.43;5.85;;;;;;;;;;5045431;28;20789;-51
2023/04/29 00:31:33;;;;;;;6.57;5.97;;;;;;;;;;5039693;28;20236;-51
2023/04/29 00:34:00;;;;;;;6.32;5.72;;;;;;;;;;5044790;28;20301;-51
2023/04/29 00:36:27;;;;;;;8.45;6.53;;;;;;;;;;5043500;28;20235;-52
2023/04/29 00:38:53;;;;;;;10.10;6.18;;;;;;;;;;5041892;28;20232;-51
2023/04/29 00:41:21;;;;;;;6.75;6.05;;;;;;;;;;5037417;28;20255;-50
2023/04/29 00:43:48;;;;;;;7.88;6.32;;;;;;;;;;5044477;28;20227;-51
2023/04/29 00:46:15;;;;;;;7.90;7.20;;;;;;;;;;5047747;28;20254;-51
2023/04/29 00:48:41;;;;;;;8.23;7.35;;;;;;;;;;5044386;28;20228;-51
2023/04/29 00:51:08;;;;;;;9.48;7.32;;;;;;;;;;5028861;28;20227;-51
2023/04/29 00:53:35;;;;;;;7.22;6.13;;;;;;;;;;5046571;28;20235;-50
2023/04/29 00:56:02;;;;;;;6.93;6.32;;;;;;;;;;5045922;28;20236;-51
2023/04/29 00:58:34;;;;;;;9.07;7.78;;;;;;;;;;5038305;28;20259;-51
2023/04/29 01:01:02;;;;;;;8.20;6.78;;;;;;;;;;5044686;28;20310;-51
2023/04/29 01:03:29;;;;;;;8.75;7.50;;;;;;;;;;5045732;28;20232;-52
2023/04/29 01:06:02;;;;;;;9.05;6.82;;;;;;;;;;5043132;28;20234;-51
2023/04/29 01:08:34;;;;;;;8.45;7.63;;;;;;;;;;5042049;28;20235;-50
2023/04/29 01:11:05;;;;;;;8.95;7.65;;;;;;;;;;5041984;28;20331;-51
2023/04/29 01:13:37;;;;;;;8.32;7.55;;;;;;;;;;5045925;28;20224;-50
2023/04/29 01:16:05;;;;;;;9.63;8.67;;;;;;;;;;5045428;28;20235;-51
2023/04/29 01:18:33;;;;;;;10.02;8.25;;;;;;;;;;5044745;28;20259;-50
2023/04/29 01:21:00;;;;;;;10.02;8.88;;;;;;;;;;5043290;28;20236;-51
2023/04/29 01:23:28;;;;;;;8.52;7.82;;;;;;;;;;5044630;28;20709;-50
2023/04/29 01:25:55;;;;;;;9.27;8.47;;;;;;;;;;5041613;28;20255;-50
2023/04/29 01:28:27;;;;;;;9.57;8.67;;;;;;;;;;5043405;28;20956;-51
2023/04/29 01:31:07;;;;;;;11.05;8.73;;;;;;;;;;5039699;28;20236;-51
2023/04/29 01:33:39;;;;;;;8.82;8.02;;;;;;;;;;5041564;28;20239;-51
2023/04/29 01:36:12;;;;;;;11.97;10.03;;;;;;;;;;5043381;28;20297;-51
2023/04/29 01:38:42;;;;;;;11.43;9.50;;;;;;;;;;5043012;28;20289;-52
2023/04/29 01:41:14;;;;;;;10.38;9.38;;;;;;;;;;5043374;28;20318;-51
2023/04/29 01:43:43;;;;;;;11.18;8.48;;;;;;;;;;5043218;28;20740;-50
2023/04/29 01:46:09;;;;;;;10.20;9.10;;;;;;;;;;5042491;28;20239;-50
2023/04/29 01:48:36;;;;;;;11.40;10.30;;;;;;;;;;5037149;28;20223;-50
2023/04/29 01:51:04;;;;;;;11.23;10.13;;;;;;;;;;5043307;28;20267;-50
2023/04/29 01:53:31;;;;;;;12.97;11.13;;;;;;;;;;5038234;28;20721;-51
2023/04/29 01:56:01;;;;;;;11.07;10.10;;;;;;;;;;5043955;28;20247;-50
2023/04/29 01:58:28;;;;;;;11.87;10.77;;;;;;;;;;5028497;28;20433;-50
2023/04/29 02:00:55;;;;;;;10.90;9.80;;;;;;;;;;5040602;28;20236;-56
2023/04/29 02:03:21;;;;;;;12.83;10.37;;;;;;;;;;5044116;28;20270;-50
2023/04/29 02:05:49;;;;;;;12.20;11.10;;;;;;;;;;5042734;28;20600;-50
2023/04/29 02:08:16;;;;;;;12.03;10.93;;;;;;;;;;5043497;28;20319;-51
2023/04/29 02:10:42;;;;;;;12.13;11.03;;;;;;;;;;5042771;28;20786;-51
2023/04/29 02:13:12;;;;;;;11.57;10.10;;;;;;;;;;5043925;28;20242;-50
2023/04/29 02:15:38;;;;;;;14.63;11.53;;;;;;;;;;5029299;28;20243;-52
2023/04/29 02:18:05;;;;;;;12.67;11.40;;;;;;;;;;5042031;28;20258;-50
2023/04/29 02:20:31;;;;;;;12.77;11.50;;;;;;;;;;5043157;28;20243;-51
2023/04/29 02:22:58;;;;;;;13.63;12.33;;;;;;;;;;5042658;28;20234;-51
2023/04/29 02:25:25;;;;;;;12.23;11.03;;;;;;;;;;5044876;28;20240;-56
2023/04/29 02:27:51;;;;;;;12.03;10.83;;;;;;;;;;5044820;28;20228;-51
2023/04/29 02:30:19;;;;;;;14.47;12.87;;;;;;;;;;5049827;28;20240;-55
2023/04/29 02:32:46;;;;;;;14.60;13.30;;;;;;;;;;5046936;28;20255;-53
2023/04/29 02:35:13;;;;;;;13.90;12.60;;;;;;;;;;5055328;28;20228;-50
2023/04/29 02:37:39;;;;;;;14.17;12.87;;;;;;;;;;5043280;28;20238;-52
2023/04/29 02:40:06;;;;;;;13.65;12.35;;;;;;;;;;5041105;28;20243;-52
2023/04/29 02:42:33;;;;;;;14.20;12.80;;;;;;;;;;5042785;28;20255;-50
2023/04/29 02:44:59;;;;;;;14.93;13.53;;;;;;;;;;5042148;28;20232;-51
2023/04/29 02:47:27;;;;;;;15.10;12.93;;;;;;;;;;5035670;28;20232;-51
2023/04/29 02:49:54;;;;;;;13.60;12.30;;;;;;;;;;5040312;28;20286;-51
2023/04/29 02:52:21;;;;;;;15.03;13.63;;;;;;;;;;5040201;28;20305;-51
2023/04/29 02:54:47;;;;;;;16.30;14.60;;;;;;;;;;5043588;28;20232;-50
2023/04/29 02:57:14;;;;;;;16.30;14.53;;;;;;;;;;5043415;28;20234;-50
2023/04/29 02:59:40;;;;;;;15.70;14.10;;;;;;;;;;5044073;28;20232;-51
2023/04/29 03:02:07;;;;;;;16.25;14.60;;;;;;;;;;5041709;28;20717;-50
2023/04/29 03:04:35;;;;;;;15.63;13.90;;;;;;;;;;5043838;28;20297;-51
2023/04/29 03:07:01;;;;;;;15.83;14.23;;;;;;;;;;5044847;28;20252;-51
2023/04/29 03:09:28;;;;;;;16.50;14.90;;;;;;;;;;5046884;28;20239;-50
2023/04/29 03:11:54;;;;;;;15.93;14.40;;;;;;;;;;5048841;28;20281;-51
2023/04/29 03:14:21;;;;;;;15.70;14.20;;;;;;;;;;5039438;28;20227;-52
2023/04/29 03:16:48;;;;;;;16.40;14.90;;;;;;;;;;5044040;28;20254;-51
2023/04/29 03:19:15;;;;;;;19.63;17.63;;;;;;;;;;5045188;28;20243;-51
2023/04/29 03:21:44;;;;;;;17.07;15.57;;;;;;;;;;5047461;28;20240;-52
2023/04/29 03:24:10;;;;;;;16.93;14.97;;;;;;;;;;5047422;28;20236;-52
2023/04/29 03:26:37;;;;;;;17.57;15.90;;;;;;;;;;5045050;28;20227;-51
2023/04/29 03:29:03;;;;;;;15.47;13.37;;;;;;;;;;5041423;28;20235;-50
2023/04/29 03:31:30;;;;;;;21.47;15.50;;;;;;;;;;5046215;28;20227;-50
2023/04/29 03:33:57;;;;;;;18.03;16.17;;;;;;;;;;5046583;28;20232;-51
2023/04/29 03:36:23;;;;;;;19.65;16.55;;;;;;;;;;5045979;28;20236;-50
2023/04/29 03:38:52;;;;;;;18.52;16.35;;;;;;;;;;5043988;28;20246;-51
2023/04/29 03:41:18;;;;;;;18.30;16.33;;;;;;;;;;5042787;28;20631;-52
2023/04/29 03:43:45;;;;;;;25.90;23.23;;;;;;;;;;5043591;28;20232;-51
2023/04/29 03:46:11;;;;;;;19.97;18.13;;;;;;;;;;5044945;28;20232;-51
2023/04/29 03:48:38;;;;;;;17.77;15.87;;;;;;;;;;5045143;28;20232;-51
2023/04/29 03:51:05;;;;;;;20.00;18.00;;;;;;;;;;5043621;28;20677;-52
2023/04/29 03:53:32;;;;;;;19.13;17.07;;;;;;;;;;5044535;28;20232;-51
2023/04/29 03:56:00;;;;;;;21.27;19.07;;;;;;;;;;5045812;28;20232;-51
2023/04/29 03:58:27;;;;;;;20.23;17.17;;;;;;;;;;5045126;28;20251;-55
2023/04/29 04:00:55;;;;;;;18.52;16.60;;;;;;;;;;5044459;28;20250;-50
2023/04/29 04:03:22;;;;;;;21.20;19.10;;;;;;;;;;5045756;28;20251;-51
2023/04/29 04:05:49;;;;;;;22.17;19.77;;;;;;;;;;5048330;28;20226;-51
2023/04/29 04:08:16;;;;;;;21.80;19.67;;;;;;;;;;5051966;28;20243;-51
2023/04/29 04:10:43;;;;;;;19.63;17.52;;;;;;;;;;5045838;28;20289;-51
2023/04/29 04:13:10;;;;;;;21.13;18.92;;;;;;;;;;5042546;28;20233;-51
2023/04/29 04:15:37;;;;;;;21.73;19.52;;;;;;;;;;5043808;28;20238;-51
2023/04/29 04:18:04;;;;;;;20.83;18.63;;;;;;;;;;5037059;28;20621;-51
2023/04/29 04:20:30;;;;;;;23.60;17.63;;;;;;;;;;5075038;28;20651;-52
2023/04/29 04:22:57;;;;;;;21.85;19.65;;;;;;;;;;5046527;28;20228;-51
2023/04/29 04:25:24;;;;;;;21.95;19.13;;;;;;;;;;5042626;28;20236;-51
2023/04/29 04:27:51;;;;;;;22.90;20.50;;;;;;;;;;5043228;28;20289;-51
2023/04/29 04:30:19;;;;;;;21.77;19.57;;;;;;;;;;5045315;28;20581;-51
2023/04/29 04:32:45;;;;;;;20.25;18.20;;;;;;;;;;5051254;28;20223;-51
2023/04/29 04:35:12;;;;;;;22.75;20.38;;;;;;;;;;5051436;28;20560;-51
2023/04/29 04:37:39;;;;;;;20.17;18.00;;;;;;;;;;5044834;28;20321;-52
2023/04/29 04:40:06;;;;;;;20.60;18.42;;;;;;;;;;5050659;28;20323;-51
2023/04/29 04:42:33;;;;;;;22.33;20.02;;;;;;;;;;5042149;28;20776;-51
2023/04/29 04:44:59;;;;;;;20.77;18.58;;;;;;;;;;5041719;28;20303;-50
2023/04/29 04:47:27;;;;;;;24.02;19.80;;;;;;;;;;5040221;28;20235;-52
2023/04/29 04:49:54;;;;;;;20.67;18.58;;;;;;;;;;5042422;28;20339;-50
2023/04/29 04:52:21;;;;;;;23.23;20.88;;;;;;;;;;5045751;28;20314;-50
2023/04/29 04:54:48;;;;;;;23.17;20.77;;;;;;;;;;5043182;28;20234;-51
2023/04/29 04:57:15;;;;;;;25.00;22.33;;;;;;;;;;5042455;28;20297;-52
2023/04/29 04:59:42;;;;;;;24.23;21.70;;;;;;;;;;5040074;28;20224;-50
2023/04/29 05:02:08;;;;;;;28.48;21.75;;;;;;;;;;5042586;28;20264;-51
2023/04/29 05:04:36;;;;;;;23.33;20.83;;;;;;;;;;5042552;28;20231;-50
2023/04/29 05:07:03;;;;;;;25.08;20.52;;;;;;;;;;5042881;28;20238;-51
2023/04/29 05:09:29;;;;;;;25.08;21.92;;;;;;;;;;5043305;28;20311;-51
2023/04/29 05:11:58;;;;;;;25.75;21.38;;;;;;;;;;5042174;28;20323;-51
2023/04/29 05:14:25;;;;;;;23.70;21.13;;;;;;;;;;5045132;28;20306;-51
2023/04/29 05:16:52;;;;;;;22.48;20.08;;;;;;;;;;5042577;28;20322;-52
2023/04/29 05:19:19;;;;;;;24.23;21.33;;;;;;;;;;5043473;28;21028;-55
2023/04/29 05:21:47;;;;;;;25.10;20.52;;;;;;;;;;5043005;28;20274;-52
2023/04/29 05:24:14;;;;;;;23.13;20.73;;;;;;;;;;5040440;28;20230;-51
2023/04/29 05:26:42;;;;;;;23.55;19.70;;;;;;;;;;5048804;28;20762;-51
2023/04/29 05:29:09;;;;;;;28.08;20.48;;;;;;;;;;5041207;28;20295;-51
2023/04/29 05:31:35;;;;;;;22.73;20.00;;;;;;;;;;5043606;28;20241;-52
2023/04/29 05:34:02;;;;;;;21.33;18.38;;;;;;;;;;5043374;28;20677;-52
2023/04/29 05:36:29;;;;;;;20.83;18.55;;;;;;;;;;5043785;28;20266;-52
2023/04/29 05:38:57;;;;;;;23.00;18.88;;;;;;;;;;5041316;28;20234;-52
2023/04/29 05:41:25;;;;;;;24.67;19.42;;;;;;;;;;5043797;28;20621;-53
2023/04/29 05:43:51;;;;;;;24.00;19.67;;;;;;;;;;5037030;28;20245;-53
2023/04/29 05:46:19;;;;;;;25.45;19.77;;;;;;;;;;5041780;28;20235;-51
2023/04/29 05:48:46;;;;;;;24.25;19.95;;;;;;;;;;5043068;28;20227;-51
2023/04/29 05:51:13;;;;;;;23.05;18.90;;;;;;;;;;5042521;28;20288;-51
2023/04/29 05:53:39;;;;;;;24.70;20.40;;;;;;;;;;5042344;28;20232;-51
2023/04/29 05:56:08;;;;;;;28.05;24.85;;;;;;;;;;5041745;28;20292;-51
2023/04/29 05:58:34;;;;;;;25.25;20.58;;;;;;;;;;5042444;28;20414;-52
2023/04/29 06:01:01;;;;;;;21.95;19.08;;;;;;;;;;5040711;28;20740;-51
2023/04/29 06:03:28;;;;;;;23.85;19.38;;;;;;;;;;5043317;28;20263;-52
2023/04/29 06:05:54;;;;;;;26.40;20.50;;;;;;;;;;5044870;28;20289;-51
2023/04/29 06:08:21;;;;;;;25.13;19.48;;;;;;;;;;5037002;28;20228;-52
2023/04/29 06:10:50;;;;;;;22.88;19.63;;;;;;;;;;5045246;28;20240;-52
2023/04/29 06:13:18;;;;;;;23.67;20.00;;;;;;;;;;5040347;28;20232;-51
2023/04/29 06:15:45;;;;;;;28.73;19.05;;;;;;;;;;5039018;28;20342;-53
2023/04/29 06:18:11;;;;;;;24.05;19.10;;;;;;;;;;5041479;28;20733;-51
2023/04/29 06:20:38;;;;;;;23.80;19.88;;;;;;;;;;5041066;28;20236;-51
2023/04/29 06:23:05;;;;;;;26.00;19.38;;;;;;;;;;5041726;28;20235;-51
2023/04/29 06:25:31;;;;;;;21.63;18.38;;;;;;;;;;5041615;28;20236;-51
2023/04/29 06:27:58;;;;;;;20.33;17.70;;;;;;;;;;5045444;28;20337;-52
2023/04/29 06:30:26;;;;;;;21.35;16.45;;;;;;;;;;5049629;28;20281;-50
2023/04/29 06:32:53;;;;;;;21.08;17.20;;;;;;;;;;5026383;28;20271;-52
2023/04/29 06:35:20;;;;;;;22.75;18.10;;;;;;;;;;5043383;28;20251;-53
2023/04/29 06:37:46;;;;;;;20.73;16.75;;;;;;;;;;5042595;28;20278;-53
2023/04/29 06:40:13;;;;;;;20.42;16.42;;;;;;;;;;5044831;28;20259;-54
2023/04/29 06:42:39;;;;;;;19.95;16.20;;;;;;;;;;5050850;28;20239;-52
2023/04/29 06:45:07;;;;;;;18.27;15.90;;;;;;;;;;5044661;28;20720;-53
2023/04/29 06:47:35;;;;;;;18.02;15.88;;;;;;;;;;5050707;28;20227;-52
2023/04/29 06:50:01;;;;;;;18.35;16.08;;;;;;;;;;5051991;28;20251;-51
2023/04/29 06:52:28;;;;;;;15.55;13.88;;;;;;;;;;5053261;28;20231;-51
2023/04/29 06:54:55;;;;;;;17.17;15.38;;;;;;;;;;5050224;28;20705;-51
2023/04/29 06:57:21;;;;;;;17.70;14.20;;;;;;;;;;5046105;28;20812;-50
2023/04/29 06:59:48;;;;;;;15.73;13.98;;;;;;;;;;5044865;28;20228;-52
2023/04/29 07:02:15;;;;;;;18.73;15.13;;;;;;;;;;5048884;28;20270;-51
2023/04/29 07:04:43;;;;;;;19.73;15.52;;;;;;;;;;5046632;28;20251;-51
2023/04/29 07:07:09;;;;;;;17.58;14.13;;;;;;;;;;5047319;28;20258;-52
2023/04/29 07:09:36;;;;;;;19.88;15.65;;;;;;;;;;5049460;28;20247;-51
2023/04/29 07:12:03;;;;;;;20.35;15.98;;;;;;;;;;5048694;28;20239;-51
2023/04/29 07:14:30;;;;;;;21.75;17.10;;;;;;;;;;5043431;28;20254;-51
2023/04/29 07:29:15;;;;;;;18.15;16.23;;;;;;;;;;5137985;27;20586;-53
2023/04/29 07:31:41;;;;;;;16.40;14.70;;;;;;;;;;5095456;28;20837;-52
2023/04/29 07:34:07;;;;;;;17.05;15.18;;;;;;;;;;5094298;28;20261;-52
2023/04/29 07:36:34;;;;;;;17.70;15.75;;;;;;;;;;5100004;28;20229;-52
2023/04/29 07:39:00;;;;;;;15.68;13.93;;;;;;;;;;5094280;28;20239;-52
2023/04/29 07:41:27;;;;;;;17.98;16.08;;;;;;;;;;5100041;28;20225;-52
2023/04/29 07:43:53;;;;;;;19.23;16.33;;;;;;;;;;5091614;28;20716;-54
2023/04/29 07:46:21;;;;;;;16.50;14.80;;;;;;;;;;5095269;28;20226;-52
2023/04/29 07:48:47;;;;;;;17.58;15.88;;;;;;;;;;5096971;28;20240;-54
2023/04/29 07:51:14;;;;;;;17.77;15.77;;;;;;;;;;5097952;28;20238;-54
2023/04/29 07:53:40;;;;;;;16.50;14.80;;;;;;;;;;5099838;28;20889;-51
2023/04/29 07:56:07;;;;;;;17.88;15.20;;;;;;;;;;5099295;28;20229;-53
2023/04/29 07:58:34;;;;;;;16.88;15.10;;;;;;;;;;5101502;28;20230;-52
2023/04/29 08:01:05;;;;;;;15.87;13.97;;;;;;;;;;5096673;28;20239;-51
2023/04/29 08:03:33;;;;;;;16.67;14.13;;;;;;;;;;5097954;28;20532;-53
2023/04/29 08:06:01;;;;;;;16.02;14.32;;;;;;;;;;5100588;28;20221;-52
2023/04/29 08:08:27;;;;;;;16.30;14.57;;;;;;;;;;5100921;28;20229;-51
2023/04/29 08:10:53;;;;;;;15.85;14.18;;;;;;;;;;5096424;28;20309;-53
2023/04/29 08:13:20;;;;;;;15.52;14.05;;;;;;;;;;5095145;28;20226;-52
2023/04/29 08:15:46;;;;;;;14.27;12.93;;;;;;;;;;5099030;28;20304;-52
2023/04/29 08:18:12;;;;;;;15.20;13.80;;;;;;;;;;5097559;28;20240;-55
2023/04/29 08:20:40;;;;;;;13.82;12.38;;;;;;;;;;5092287;28;20333;-52
2023/04/29 08:23:07;;;;;;;13.88;12.52;;;;;;;;;;5087974;28;20276;-52
2023/04/29 08:25:33;;;;;;;13.27;11.98;;;;;;;;;;5089853;28;20322;-53
2023/04/29 08:28:00;;;;;;;13.87;12.50;;;;;;;;;;5095204;28;20779;-53
2023/04/29 08:30:27;;;;;;;13.67;12.27;;;;;;;;;;5079071;28;20604;-51
2023/04/29 08:32:53;;;;;;;14.00;12.70;;;;;;;;;;5084980;28;20317;-51
2023/04/29 08:35:20;;;;;;;12.63;11.43;;;;;;;;;;5065066;22;20328;-52
2023/04/29 08:37:47;;;;;;;13.03;11.80;;;;;;;;;;5030818;28;20258;-52
2023/04/29 08:40:14;;;;;;;12.43;11.20;;;;;;;;;;5040854;28;20203;-51
2023/04/29 08:42:40;;;;;;;13.02;11.68;;;;;;;;;;5044123;28;20209;-50
2023/04/29 08:45:07;;;;;;;13.13;11.80;;;;;;;;;;5028619;28;20224;-51
2023/04/29 08:47:33;;;;;;;13.00;11.70;;;;;;;;;;5022548;28;20209;-52
2023/04/29 08:50:02;;;;;;;13.07;11.88;;;;;;;;;;5010782;28;20209;-55
2023/04/29 08:52:29;;;;;;;12.88;11.73;;;;;;;;;;5008413;28;20281;-53
2023/04/29 08:54:56;;;;;;;14.50;12.77;;;;;;;;;;5015086;28;20229;-52
2023/04/29 08:57:24;;;;;;;12.70;11.27;;;;;;;;;;5014234;28;20254;-52
2023/04/29 08:59:51;;;;;;;13.93;12.53;;;;;;;;;;5011251;28;20277;-51
2023/04/29 09:02:17;;;;;;;13.83;12.63;;;;;;;;;;5003670;28;20218;-52
2023/04/29 09:04:47;;;;;;;14.00;12.07;;;;;;;;;;5016218;28;20232;-55
2023/04/29 09:07:13;;;;;;;15.05;13.50;;;;;;;;;;5011613;28;20195;-53
2023/04/29 09:09:41;;;;;;;16.33;14.63;;;;;;;;;;5010082;28;20224;-52
2023/04/29 09:12:09;;;;;;;16.13;13.23;;;;;;;;;;5007998;28;20213;-53
2023/04/29 09:14:36;;;;;;;14.77;13.00;;;;;;;;;;5011978;28;20316;-53
2023/04/29 09:17:02;;;;;;;15.40;13.90;;;;;;;;;;5011918;28;20213;-52
2023/04/29 09:19:29;;;;;;;17.33;15.53;;;;;;;;;;5007490;28;20209;-52
2023/04/29 09:21:56;;;;;;;18.37;16.40;;;;;;;;;;5010059;28;20209;-53
2023/04/29 09:24:25;;;;;;;16.40;14.47;;;;;;;;;;5003441;28;20325;-51
2023/04/29 09:26:52;;;;;;;20.23;16.57;;;;;;;;;;5010538;28;20217;-52
2023/04/29 09:29:19;;;;;;;18.27;16.20;;;;;;;;;;5010871;28;20208;-52
2023/04/29 09:31:46;;;;;;;23.95;18.52;;;;;;;;;;5010818;28;20683;-51
2023/04/29 09:34:13;;;;;;;20.50;18.30;;;;;;;;;;5007854;28;20331;-53
2023/04/29 09:36:40;;;;;;;21.60;18.63;;;;;;;;;;5009028;28;20244;-52
2023/04/29 09:39:10;;;;;;;21.57;18.07;;;;;;;;;;5013519;28;20225;-51
2023/04/29 09:41:38;;;;;;;22.33;19.30;;;;;;;;;;5009125;28;20212;-51
2023/04/29 09:44:05;;;;;;;24.87;19.40;;;;;;;;;;5007531;28;20229;-53
2023/04/29 09:46:35;;;;;;;21.93;19.60;;;;;;;;;;5011688;28;20205;-53
2023/04/29 09:49:02;;;;;;;25.92;20.15;;;;;;;;;;5007264;28;20217;-51
2023/04/29 09:51:31;;;;;;;27.17;21.35;;;;;;;;;;5013293;28;20687;-52
2023/04/29 09:53:57;;;;;;;27.63;22.43;;;;;;;;;;5008550;28;20213;-55
2023/04/29 09:56:27;;;;;;;30.90;24.63;;;;;;;;;;5009052;28;20202;-52
2023/04/29 09:58:55;;;;;;;32.80;24.13;;;;;;;;;;5008526;28;20217;-52
2023/04/29 10:01:22;;;;;;;34.73;29.27;;;;;;;;;;5006350;28;20224;-52
2023/04/29 10:03:51;;;;;;;32.53;27.27;;;;;;;;;;5006405;28;20738;-53
2023/04/29 10:06:18;;;;;;;33.10;24.37;;;;;;;;;;5009504;28;20201;-53
2023/04/29 10:08:46;;;;;;;33.25;27.17;;;;;;;;;;5009547;28;20206;-52
2023/04/29 10:11:13;;;;;;;32.60;26.08;;;;;;;;;;5013966;28;20262;-53
2023/04/29 10:13:41;;;;;;;35.70;27.05;;;;;;;;;;5006486;28;20669;-53
2023/04/29 10:16:12;;;;;;;33.25;26.70;;;;;;;;;;5005092;28;20229;-52
2023/04/29 10:18:40;;;;;;;44.63;28.90;;;;;;;;;;5009257;28;20312;-54
2023/04/29 10:21:08;;;;;;;35.87;28.30;;;;;;;;;;5009754;28;20301;-52
2023/04/29 10:23:35;;;;;;;37.58;29.17;;;;;;;;;;5010558;28;20209;-52
2023/04/29 10:26:03;;;;;;;42.20;29.27;;;;;;;;;;5009916;28;20231;-51
2023/04/29 10:28:31;;;;;;;39.73;29.53;;;;;;;;;;5011485;28;20202;-52
2023/04/29 10:30:58;;;;;;;32.65;27.23;;;;;;;;;;5011517;28;20209;-52
2023/04/29 10:33:26;;;;;;;34.03;27.67;;;;;;;;;;5009077;28;20296;-52
2023/04/29 10:35:52;;;;;;;36.92;27.55;;;;;;;;;;5010079;28;20248;-52
2023/04/29 10:38:24;;;;;;;34.80;27.47;;;;;;;;;;5007818;28;20225;-52
2023/04/29 10:40:50;;;;;;;33.33;26.15;;;;;;;;;;5007499;28;20228;-52
2023/04/29 10:43:22;;;;;;;32.35;25.95;;;;;;;;;;5009821;28;20297;-51
2023/04/29 10:45:48;;;;;;;29.13;25.10;;;;;;;;;;5006578;28;20312;-53
2023/04/29 10:48:17;;;;;;;25.25;22.55;;;;;;;;;;5010191;28;20263;-51
2023/04/29 10:51:02;;;;;;;25.70;23.02;;;;;;;;;;5010624;28;20568;-51
2023/04/29 10:53:30;;;;;;;25.65;22.67;;;;;;;;;;5007371;28;20208;-52
2023/04/29 10:55:57;;;;;;;26.88;22.67;;;;;;;;;;5011000;28;20237;-53
2023/04/29 10:58:36;;;;;;;23.38;20.42;;;;;;;;;;5010131;28;20229;-54
2023/04/29 11:01:03;;;;;;;25.20;22.50;;;;;;;;;;5006151;28;20697;-53
2023/04/29 11:03:45;;;;;;;25.27;22.15;;;;;;;;;;5007679;28;20225;-54
2023/04/29 11:06:12;;;;;;;27.90;22.33;;;;;;;;;;5008007;28;20292;-51
2023/04/29 11:08:40;;;;;;;24.13;21.55;;;;;;;;;;5006397;28;20221;-51
2023/04/29 11:11:06;;;;;;;23.08;20.58;;;;;;;;;;5001014;28;20624;-52
2023/04/29 11:13:37;;;;;;;21.95;19.67;;;;;;;;;;5006314;28;20220;-52
2023/04/29 11:16:04;;;;;;;22.83;20.42;;;;;;;;;;5009032;28;20324;-53
2023/04/29 11:18:30;;;;;;;21.38;19.25;;;;;;;;;;5006295;28;20304;-54
2023/04/29 11:21:12;;;;;;;22.17;18.80;;;;;;;;;;5008388;28;20213;-51
2023/04/29 11:23:41;;;;;;;20.30;18.00;;;;;;;;;;5007524;28;20214;-53
2023/04/29 11:26:07;;;;;;;20.38;18.17;;;;;;;;;;5004217;28;20208;-52
2023/04/29 11:28:34;;;;;;;20.83;18.63;;;;;;;;;;5006615;28;20259;-51
2023/04/29 11:31:02;;;;;;;18.75;16.48;;;;;;;;;;5006975;28;20213;-53
2023/04/29 11:33:31;;;;;;;18.15;16.33;;;;;;;;;;5008049;28;20215;-52
2023/04/29 11:35:58;;;;;;;19.83;17.90;;;;;;;;;;5005471;28;20265;-51
2023/04/29 11:38:24;;;;;;;19.63;16.55;;;;;;;;;;5005078;28;20233;-52
2023/04/29 11:40:52;;;;;;;15.73;14.32;;;;;;;;;;5001070;28;20316;-54
2023/04/29 11:43:18;;;;;;;17.10;15.23;;;;;;;;;;5002612;28;20243;-54
2023/04/29 11:45:45;;;;;;;18.25;15.40;;;;;;;;;;4999200;28;20249;-53
2023/04/29 11:48:17;;;;;;;17.45;13.52;;;;;;;;;;5002725;28;20236;-52
2023/04/29 11:50:44;;;;;;;16.73;15.02;;;;;;;;;;5001698;28;20759;-53
2023/04/29 11:53:11;;;;;;;17.05;15.30;;;;;;;;;;5004458;28;20222;-53
2023/04/29 11:55:37;;;;;;;17.00;15.25;;;;;;;;;;5007056;28;20236;-53
2023/04/29 11:58:05;;;;;;;17.92;14.93;;;;;;;;;;5006098;28;20219;-52
2023/04/29 12:00:32;;;;;;;19.95;16.90;;;;;;;;;;5007137;28;20209;-54
2023/04/29 12:02:58;;;;;;;15.40;14.00;;;;;;;;;;5007762;28;20206;-51
2023/04/29 12:05:25;;;;;;;16.35;14.75;;;;;;;;;;5011613;28;20403;-51
2023/04/29 12:07:51;;;;;;;15.82;14.13;;;;;;;;;;5014244;28;20206;-52
2023/04/29 12:10:18;;;;;;;16.33;14.13;;;;;;;;;;5011429;28;20293;-52
2023/04/29 12:12:45;;;;;;;15.65;14.05;;;;;;;;;;5011212;28;20661;-53
2023/04/29 12:15:13;;;;;;;14.20;12.93;;;;;;;;;;5012570;28;20242;-52
2023/04/29 12:17:39;;;;;;;15.15;13.75;;;;;;;;;;5012030;28;20244;-52
2023/04/29 12:20:08;;;;;;;15.23;13.73;;;;;;;;;;5012428;28;20758;-53
2023/04/29 12:22:35;;;;;;;15.85;14.23;;;;;;;;;;5013012;28;20296;-54
2023/04/29 12:25:03;;;;;;;14.80;13.45;;;;;;;;;;5009263;28;20319;-52
2023/04/29 12:27:29;;;;;;;17.33;13.95;;;;;;;;;;5012971;28;20233;-52
2023/04/29 12:29:56;;;;;;;14.93;13.32;;;;;;;;;;5010959;28;20292;-53
2023/04/29 12:32:24;;;;;;;14.98;13.50;;;;;;;;;;5012869;28;20202;-53
2023/04/29 12:34:52;;;;;;;14.43;12.60;;;;;;;;;;5009506;28;20247;-53
2023/04/29 12:37:18;;;;;;;16.20;13.75;;;;;;;;;;5011262;28;20205;-52
2023/04/29 12:39:45;;;;;;;11.93;10.82;;;;;;;;;;5008415;28;20225;-52
2023/04/29 12:42:16;;;;;;;11.02;10.02;;;;;;;;;;5010985;28;20229;-54
2023/04/29 12:44:45;;;;;;;13.85;12.00;;;;;;;;;;5007890;28;20236;-54
2023/04/29 12:47:12;;;;;;;12.00;10.75;;;;;;;;;;5010981;28;20344;-54
2023/04/29 12:49:42;;;;;;;10.75;9.85;;;;;;;;;;5009787;28;20197;-53
2023/04/29 12:52:09;;;;;;;10.57;9.48;;;;;;;;;;5006879;28;20201;-55
2023/04/29 12:54:36;;;;;;;10.05;9.02;;;;;;;;;;5011034;28;20247;-53
2023/04/29 12:57:03;;;;;;;9.88;8.98;;;;;;;;;;5009703;28;20216;-52
2023/04/29 12:59:29;;;;;;;9.23;8.32;;;;;;;;;;5008370;28;20316;-53
2023/04/29 13:01:55;;;;;;;10.32;7.68;;;;;;;;;;5011169;28;20205;-53
2023/04/29 13:04:22;;;;;;;8.18;7.38;;;;;;;;;;5010519;28;20312;-52
2023/04/29 13:06:53;;;;;;;7.30;6.57;;;;;;;;;;5012581;28;20798;-54
2023/04/29 13:09:19;;;;;;;9.70;7.93;;;;;;;;;;5010367;28;20683;-53
2023/04/29 13:11:46;;;;;;;8.88;6.28;;;;;;;;;;5010803;28;20304;-54
2023/04/29 13:14:12;;;;;;;6.63;5.85;;;;;;;;;;5011205;28;20889;-52
2023/04/29 13:16:39;;;;;;;5.95;5.45;;;;;;;;;;5015187;28;20237;-54
2023/04/29 13:19:06;;;;;;;7.53;6.70;;;;;;;;;;5008412;28;20233;-53
2023/04/29 13:21:32;;;;;;;6.50;5.88;;;;;;;;;;5023770;28;20553;-52
2023/04/29 13:24:00;;;;;;;6.82;5.30;;;;;;;;;;5021830;28;20216;-53
2023/04/29 13:26:26;;;;;;;5.32;4.82;;;;;;;;;;5025725;28;20221;-51
2023/04/29 13:28:53;;;;;;;6.05;5.45;;;;;;;;;;5028366;28;20851;-51
2023/04/29 13:31:19;;;;;;;5.93;5.43;;;;;;;;;;5029761;28;20291;-51
2023/04/29 13:33:47;;;;;;;6.25;5.72;;;;;;;;;;5023343;28;20305;-52
2023/04/29 13:36:13;;;;;;;6.50;5.82;;;;;;;;;;5010241;28;20830;-53
2023/04/29 13:38:40;;;;;;;7.55;6.38;;;;;;;;;;5017582;28;20320;-54
2023/04/29 13:41:08;;;;;;;6.35;5.75;;;;;;;;;;5012344;28;20630;-52
2023/04/29 13:43:34;;;;;;;6.55;5.95;;;;;;;;;;5013968;28;20215;-52
2023/04/29 13:46:01;;;;;;;8.43;6.97;;;;;;;;;;5013498;28;20256;-52
2023/04/29 13:48:27;;;;;;;7.93;7.20;;;;;;;;;;5017311;28;20212;-51
2023/04/29 13:50:54;;;;;;;8.63;7.75;;;;;;;;;;5018428;28;20233;-51
2023/04/29 13:53:20;;;;;;;8.80;7.20;;;;;;;;;;5009366;28;20255;-52
2023/04/29 13:55:47;;;;;;;8.93;8.07;;;;;;;;;;5011484;28;20703;-52
2023/04/29 13:58:15;;;;;;;8.30;7.10;;;;;;;;;;5013278;28;20231;-54
2023/04/29 14:00:41;;;;;;;7.53;6.70;;;;;;;;;;5009092;28;20247;-53
2023/04/29 14:03:08;;;;;;;10.27;8.52;;;;;;;;;;5011262;28;20743;-52
2023/04/29 14:05:34;;;;;;;8.23;7.35;;;;;;;;;;5018576;28;20755;-53
2023/04/29 14:08:01;;;;;;;10.93;8.70;;;;;;;;;;5018506;28;20240;-52
2023/04/29 14:10:27;;;;;;;9.57;7.22;;;;;;;;;;5009621;28;20241;-52
2023/04/29 14:12:54;;;;;;;8.60;7.13;;;;;;;;;;5007579;28;20219;-52
2023/04/29 14:15:21;;;;;;;8.23;6.75;;;;;;;;;;5011299;28;20225;-52
2023/04/29 14:17:49;;;;;;;8.73;7.85;;;;;;;;;;5021710;28;20240;-53
2023/04/29 14:20:15;;;;;;;7.82;7.13;;;;;;;;;;5027295;28;20617;-54
2023/04/29 14:22:42;;;;;;;7.30;6.60;;;;;;;;;;5022801;28;20208;-53
2023/04/29 14:25:08;;;;;;;6.22;5.72;;;;;;;;;;5008810;28;20316;-53
2023/04/29 14:27:35;;;;;;;8.40;7.18;;;;;;;;;;5019067;28;20240;-52
2023/04/29 14:30:03;;;;;;;8.98;6.70;;;;;;;;;;5008163;28;20213;-52
2023/04/29 14:32:31;;;;;;;9.18;6.70;;;;;;;;;;5011115;28;20268;-51
2023/04/29 14:34:58;;;;;;;9.15;6.13;;;;;;;;;;5042001;23;20318;-52
2023/04/29 14:37:25;;;;;;;9.25;6.35;;;;;;;;;;5064951;28;20293;-51